Time;durP1;ratioP1;P1;durP2;ratioP2;P2;SDS_P1;SDS_P2;PMS_P1;PMS_P2;Temp;Humidity;BMP_temperature;BMP_pressure;BME280_temperature;BME280_humidity;BME280_pressure;Samples;Min_cycle;Max_cycle;Signal;HPM_P1;HPM_P2
2023/06/29 00:04:44;;;;;;;16.23;9.02;;;;;;;;;;4946567;28;20684;-67
2023/06/29 00:07:09;;;;;;;16.20;9.10;;;;;;;;;;4940196;28;20241;-67
2023/06/29 00:09:34;;;;;;;17.95;10.05;;;;;;;;;;4944709;28;20177;-67
2023/06/29 00:12:00;;;;;;;16.27;9.30;;;;;;;;;;4946559;28;20189;-67
2023/06/29 00:14:25;;;;;;;16.63;8.88;;;;;;;;;;4943344;28;20209;-67
2023/06/29 00:16:50;;;;;;;18.40;9.00;;;;;;;;;;4946766;28;20177;-67
2023/06/29 00:19:16;;;;;;;16.10;9.23;;;;;;;;;;4949735;28;20213;-67
2023/06/29 00:21:41;;;;;;;17.15;9.50;;;;;;;;;;4950707;28;20181;-67
2023/06/29 00:24:11;;;;;;;16.23;9.48;;;;;;;;;;4951898;28;20734;-67
2023/06/29 00:26:36;;;;;;;15.40;8.68;;;;;;;;;;4952128;28;20654;-67
2023/06/29 00:29:02;;;;;;;14.50;9.77;;;;;;;;;;4953747;28;20185;-67
2023/06/29 00:31:27;;;;;;;16.45;9.98;;;;;;;;;;4953959;28;20192;-67
2023/06/29 00:33:52;;;;;;;15.77;9.68;;;;;;;;;;4955448;28;20195;-67
2023/06/29 00:36:18;;;;;;;15.90;8.63;;;;;;;;;;4954134;28;20185;-68
2023/06/29 00:38:43;;;;;;;14.93;8.80;;;;;;;;;;4954187;28;20189;-68
2023/06/29 00:41:08;;;;;;;16.08;9.98;;;;;;;;;;4955390;28;20185;-68
2023/06/29 00:43:33;;;;;;;14.05;8.63;;;;;;;;;;4951897;28;20671;-68
2023/06/29 00:45:59;;;;;;;15.02;9.50;;;;;;;;;;4948896;28;20185;-68
2023/06/29 00:48:24;;;;;;;16.50;9.75;;;;;;;;;;4951553;28;20726;-68
2023/06/29 00:50:49;;;;;;;18.77;10.80;;;;;;;;;;4953110;28;20572;-68
2023/06/29 00:53:15;;;;;;;17.40;10.70;;;;;;;;;;4954987;28;20288;-68
2023/06/29 00:55:40;;;;;;;15.30;9.65;;;;;;;;;;4952879;28;20185;-67
2023/06/29 00:58:06;;;;;;;15.38;9.15;;;;;;;;;;4955239;28;20627;-67
2023/06/29 01:00:31;;;;;;;15.77;10.02;;;;;;;;;;4954165;28;20208;-67
2023/06/29 01:02:57;;;;;;;17.35;10.45;;;;;;;;;;4944961;28;20221;-67
2023/06/29 01:05:22;;;;;;;21.30;11.23;;;;;;;;;;4954999;28;20212;-67
2023/06/29 01:08:01;;;;;;;15.80;10.68;;;;;;;;;;4954848;28;20264;-67
2023/06/29 01:10:28;;;;;;;18.10;10.23;;;;;;;;;;4952247;28;20216;-68
2023/06/29 01:12:55;;;;;;;18.75;9.70;;;;;;;;;;4953456;28;20236;-67
2023/06/29 01:15:21;;;;;;;20.25;10.13;;;;;;;;;;4952788;28;20552;-67
2023/06/29 01:17:47;;;;;;;17.27;10.60;;;;;;;;;;4950653;28;20176;-67
2023/06/29 01:20:14;;;;;;;16.42;10.52;;;;;;;;;;4944194;28;20305;-68
2023/06/29 01:22:41;;;;;;;18.88;10.75;;;;;;;;;;4951633;28;20197;-67
2023/06/29 01:25:06;;;;;;;14.98;10.13;;;;;;;;;;4950932;28;20181;-67
2023/06/29 01:27:33;;;;;;;18.58;10.73;;;;;;;;;;4952956;28;20528;-67
2023/06/29 01:30:01;;;;;;;16.13;10.00;;;;;;;;;;4953017;28;20181;-67
2023/06/29 01:32:33;;;;;;;15.90;10.20;;;;;;;;;;4953675;28;20185;-67
2023/06/29 01:34:59;;;;;;;17.75;10.63;;;;;;;;;;4947277;28;20484;-67
2023/06/29 01:37:27;;;;;;;16.48;10.55;;;;;;;;;;4952284;28;20240;-67
2023/06/29 01:39:55;;;;;;;22.88;11.07;;;;;;;;;;4953586;28;20573;-67
2023/06/29 01:42:21;;;;;;;18.45;10.73;;;;;;;;;;4951280;28;20182;-67
2023/06/29 01:44:46;;;;;;;19.23;11.07;;;;;;;;;;4947406;28;20182;-68
2023/06/29 01:47:13;;;;;;;16.00;9.82;;;;;;;;;;4954989;28;20259;-68
2023/06/29 01:49:38;;;;;;;19.50;11.98;;;;;;;;;;4953730;28;20659;-67
2023/06/29 01:52:04;;;;;;;20.52;13.32;;;;;;;;;;4953621;28;20272;-67
2023/06/29 01:54:29;;;;;;;19.60;11.18;;;;;;;;;;4951344;28;20224;-67
2023/06/29 01:56:55;;;;;;;18.73;12.07;;;;;;;;;;4955061;28;20184;-67
2023/06/29 01:59:20;;;;;;;22.10;13.63;;;;;;;;;;4953998;28;20230;-67
2023/06/29 02:01:45;;;;;;;20.30;12.68;;;;;;;;;;4954588;28;20216;-67
2023/06/29 02:04:10;;;;;;;22.02;11.65;;;;;;;;;;4954133;28;20240;-67
2023/06/29 02:06:35;;;;;;;22.58;13.13;;;;;;;;;;4954872;28;20209;-67
2023/06/29 02:09:01;;;;;;;19.67;13.25;;;;;;;;;;4953755;28;20644;-67
2023/06/29 02:11:26;;;;;;;16.70;10.93;;;;;;;;;;4953738;28;20747;-67
2023/06/29 02:13:51;;;;;;;17.10;11.57;;;;;;;;;;4948552;28;20210;-68
2023/06/29 02:16:16;;;;;;;20.35;11.13;;;;;;;;;;4947841;28;20186;-67
2023/06/29 02:18:42;;;;;;;18.45;11.73;;;;;;;;;;4953969;28;20624;-67
2023/06/29 02:21:07;;;;;;;21.33;13.43;;;;;;;;;;4949688;28;20173;-67
2023/06/29 02:23:32;;;;;;;22.67;13.52;;;;;;;;;;4950477;28;20422;-67
2023/06/29 02:25:57;;;;;;;20.63;13.32;;;;;;;;;;4945719;28;20185;-67
2023/06/29 02:28:22;;;;;;;21.60;12.05;;;;;;;;;;4949347;28;20177;-67
2023/06/29 02:30:48;;;;;;;24.15;13.35;;;;;;;;;;4953460;28;20176;-67
2023/06/29 02:33:13;;;;;;;19.35;13.05;;;;;;;;;;4952574;28;20204;-67
2023/06/29 02:35:38;;;;;;;21.05;12.48;;;;;;;;;;4952073;28;20185;-67
2023/06/29 02:38:04;;;;;;;22.77;14.13;;;;;;;;;;4949962;28;20183;-67
2023/06/29 02:40:29;;;;;;;20.80;13.63;;;;;;;;;;4951452;28;20191;-68
2023/06/29 02:42:54;;;;;;;20.58;13.00;;;;;;;;;;4952487;28;20196;-68
2023/06/29 02:45:19;;;;;;;18.02;12.07;;;;;;;;;;4952862;28;20718;-67
2023/06/29 02:47:45;;;;;;;23.33;13.77;;;;;;;;;;4954442;28;20181;-67
2023/06/29 02:50:10;;;;;;;23.38;14.55;;;;;;;;;;4944591;28;20589;-67
2023/06/29 02:52:35;;;;;;;24.63;15.13;;;;;;;;;;4945189;28;20212;-67
2023/06/29 02:55:00;;;;;;;21.80;14.70;;;;;;;;;;4952901;28;20205;-67
2023/06/29 02:57:26;;;;;;;25.75;14.60;;;;;;;;;;4952684;28;20189;-68
2023/06/29 02:59:51;;;;;;;22.05;14.10;;;;;;;;;;4951534;28;20219;-68
2023/06/29 03:02:16;;;;;;;22.35;13.20;;;;;;;;;;4953626;28;20272;-67
2023/06/29 03:04:42;;;;;;;28.75;14.43;;;;;;;;;;4953895;28;20681;-67
2023/06/29 03:07:07;;;;;;;25.05;14.20;;;;;;;;;;4946622;28;20211;-68
2023/06/29 03:09:32;;;;;;;25.55;14.75;;;;;;;;;;4944435;28;20185;-68
2023/06/29 03:11:57;;;;;;;23.08;14.45;;;;;;;;;;4950234;28;20272;-68
2023/06/29 03:14:22;;;;;;;24.45;14.52;;;;;;;;;;4948954;28;20244;-68
2023/06/29 03:16:48;;;;;;;24.58;13.43;;;;;;;;;;4945805;28;20268;-68
2023/06/29 03:19:13;;;;;;;25.23;15.73;;;;;;;;;;4950125;28;20670;-68
2023/06/29 03:21:38;;;;;;;25.92;15.23;;;;;;;;;;4952623;28;20177;-68
2023/06/29 03:24:04;;;;;;;26.08;15.25;;;;;;;;;;4950395;28;20201;-68
2023/06/29 03:26:29;;;;;;;25.02;14.13;;;;;;;;;;4939812;28;20189;-68
2023/06/29 03:28:54;;;;;;;24.60;13.98;;;;;;;;;;4945714;28;20188;-68
2023/06/29 03:31:19;;;;;;;29.98;16.08;;;;;;;;;;4948736;28;20173;-68
2023/06/29 03:33:45;;;;;;;26.75;14.70;;;;;;;;;;4949719;28;20271;-67
2023/06/29 03:36:13;;;;;;;27.13;15.77;;;;;;;;;;4952493;28;20184;-68
2023/06/29 03:38:38;;;;;;;26.27;15.52;;;;;;;;;;4953375;28;20256;-68
2023/06/29 03:41:03;;;;;;;25.48;14.23;;;;;;;;;;4952340;28;20181;-68
2023/06/29 03:43:28;;;;;;;33.55;16.42;;;;;;;;;;4951993;28;20200;-68
2023/06/29 03:45:54;;;;;;;24.52;13.52;;;;;;;;;;4952954;28;20189;-68
2023/06/29 03:48:20;;;;;;;24.98;15.32;;;;;;;;;;4952431;28;20236;-68
2023/06/29 03:50:45;;;;;;;25.63;14.63;;;;;;;;;;4951351;28;20199;-68
2023/06/29 03:53:11;;;;;;;23.90;14.25;;;;;;;;;;4951942;28;20228;-68
2023/06/29 03:55:36;;;;;;;22.60;13.35;;;;;;;;;;4951965;28;20658;-68
2023/06/29 03:58:01;;;;;;;25.85;14.25;;;;;;;;;;4951052;28;20177;-68
2023/06/29 04:00:26;;;;;;;24.67;14.30;;;;;;;;;;4950455;28;20219;-68
2023/06/29 04:02:52;;;;;;;25.80;15.88;;;;;;;;;;4950065;28;20751;-68
2023/06/29 04:05:17;;;;;;;21.00;13.93;;;;;;;;;;4952161;28;20598;-68
2023/06/29 04:07:42;;;;;;;22.52;14.45;;;;;;;;;;4946766;28;20276;-68
2023/06/29 04:10:07;;;;;;;25.48;14.20;;;;;;;;;;4950674;28;20180;-68
2023/06/29 04:12:33;;;;;;;23.73;14.55;;;;;;;;;;4948838;28;20201;-68
2023/06/29 04:14:58;;;;;;;24.05;13.35;;;;;;;;;;4950391;28;20193;-68
2023/06/29 04:17:23;;;;;;;22.75;14.27;;;;;;;;;;4950393;28;20218;-68
2023/06/29 04:19:48;;;;;;;20.77;13.55;;;;;;;;;;4950362;28;20216;-68
2023/06/29 04:22:14;;;;;;;25.40;13.70;;;;;;;;;;4947761;28;20567;-68
2023/06/29 04:24:39;;;;;;;28.17;15.57;;;;;;;;;;4949906;28;20352;-68
2023/06/29 04:27:04;;;;;;;23.60;14.35;;;;;;;;;;4950226;28;20682;-68
2023/06/29 04:29:29;;;;;;;25.08;14.35;;;;;;;;;;4947718;28;20716;-68
2023/06/29 04:31:55;;;;;;;26.42;15.02;;;;;;;;;;4950074;28;20197;-68
2023/06/29 04:34:21;;;;;;;23.10;14.85;;;;;;;;;;4945005;28;20216;-68
2023/06/29 04:36:48;;;;;;;23.95;14.07;;;;;;;;;;4945905;28;20190;-68
2023/06/29 04:39:14;;;;;;;26.48;15.32;;;;;;;;;;4950487;28;20193;-68
2023/06/29 04:41:41;;;;;;;28.10;14.95;;;;;;;;;;4953144;28;20204;-68
2023/06/29 04:44:08;;;;;;;24.17;14.95;;;;;;;;;;4950142;28;20217;-68
2023/06/29 04:46:33;;;;;;;24.98;14.00;;;;;;;;;;4944878;28;20813;-69
2023/06/29 04:49:04;;;;;;;24.75;14.68;;;;;;;;;;4951892;28;20271;-68
2023/06/29 04:51:30;;;;;;;23.92;14.75;;;;;;;;;;4951062;28;20219;-68
2023/06/29 04:53:55;;;;;;;21.73;14.20;;;;;;;;;;4946464;28;20232;-68
2023/06/29 04:56:20;;;;;;;26.50;14.85;;;;;;;;;;4949215;28;20205;-68
2023/06/29 04:58:45;;;;;;;27.75;15.13;;;;;;;;;;4945805;28;20228;-68
2023/06/29 05:01:11;;;;;;;25.50;14.70;;;;;;;;;;4946405;28;20227;-68
2023/06/29 05:03:36;;;;;;;24.48;14.90;;;;;;;;;;4948668;28;20270;-68
2023/06/29 05:06:01;;;;;;;24.05;14.73;;;;;;;;;;4946932;28;20880;-68
2023/06/29 05:08:26;;;;;;;25.52;14.43;;;;;;;;;;4943667;28;20228;-67
2023/06/29 05:10:52;;;;;;;27.58;14.65;;;;;;;;;;4949505;28;20181;-67
2023/06/29 05:13:17;;;;;;;25.67;15.27;;;;;;;;;;4941776;28;20198;-67
2023/06/29 05:15:47;;;;;;;29.77;16.33;;;;;;;;;;4950250;28;20173;-69
2023/06/29 05:18:12;;;;;;;25.00;15.32;;;;;;;;;;4946588;28;20186;-67
2023/06/29 05:20:37;;;;;;;26.33;16.50;;;;;;;;;;4952925;28;20184;-67
2023/06/29 05:23:03;;;;;;;26.92;15.68;;;;;;;;;;4952061;28;20212;-67
2023/06/29 05:25:28;;;;;;;26.98;17.02;;;;;;;;;;4952451;28;20173;-67
2023/06/29 05:27:53;;;;;;;30.10;16.50;;;;;;;;;;4948448;28;20177;-68
2023/06/29 05:30:19;;;;;;;27.27;15.35;;;;;;;;;;4951559;28;20185;-67
2023/06/29 05:32:44;;;;;;;24.70;15.40;;;;;;;;;;4951974;28;20196;-67
2023/06/29 05:35:09;;;;;;;27.02;15.90;;;;;;;;;;4945886;28;20355;-67
2023/06/29 05:37:34;;;;;;;26.45;16.33;;;;;;;;;;4951424;29;20590;-67
2023/06/29 05:40:00;;;;;;;25.00;14.98;;;;;;;;;;4952141;28;20675;-67
2023/06/29 05:42:25;;;;;;;29.55;16.23;;;;;;;;;;4946746;28;20221;-67
2023/06/29 05:44:50;;;;;;;30.42;15.80;;;;;;;;;;4946500;28;20601;-67
2023/06/29 05:47:16;;;;;;;28.20;15.70;;;;;;;;;;4952556;28;20244;-67
2023/06/29 05:49:42;;;;;;;22.40;14.80;;;;;;;;;;4951964;28;20212;-68
2023/06/29 05:52:07;;;;;;;28.52;15.63;;;;;;;;;;4945384;28;20217;-68
2023/06/29 05:54:32;;;;;;;27.50;15.93;;;;;;;;;;4949544;28;20626;-68
2023/06/29 05:56:58;;;;;;;21.75;14.38;;;;;;;;;;4953532;28;20555;-67
2023/06/29 05:59:23;;;;;;;26.67;15.27;;;;;;;;;;4949992;28;20297;-68
2023/06/29 06:01:49;;;;;;;25.55;14.02;;;;;;;;;;4944792;28;20184;-68
2023/06/29 06:04:14;;;;;;;29.30;14.68;;;;;;;;;;4972167;23;20304;-72
2023/06/29 06:06:39;;;;;;;25.50;15.43;;;;;;;;;;4955015;28;20187;-71
2023/06/29 06:09:05;;;;;;;23.63;14.70;;;;;;;;;;4952473;28;20216;-71
2023/06/29 06:11:30;;;;;;;22.50;14.10;;;;;;;;;;4954805;28;20192;-72
2023/06/29 06:13:55;;;;;;;26.38;15.07;;;;;;;;;;4952133;28;20617;-72
2023/06/29 06:16:21;;;;;;;27.27;15.88;;;;;;;;;;4952674;28;20181;-72
2023/06/29 06:18:46;;;;;;;28.65;15.38;;;;;;;;;;4954786;28;20256;-71
2023/06/29 06:21:11;;;;;;;25.38;14.48;;;;;;;;;;4952855;28;20181;-72
2023/06/29 06:23:36;;;;;;;25.08;16.33;;;;;;;;;;4950720;28;20202;-71
2023/06/29 06:26:02;;;;;;;23.58;14.68;;;;;;;;;;4951338;28;20243;-72
2023/06/29 06:28:27;;;;;;;25.85;14.25;;;;;;;;;;4952289;28;20272;-72
2023/06/29 06:30:53;;;;;;;25.38;16.27;;;;;;;;;;4955241;28;20184;-72
2023/06/29 06:33:18;;;;;;;28.15;15.68;;;;;;;;;;4954034;28;20197;-72
2023/06/29 06:35:44;;;;;;;23.73;14.32;;;;;;;;;;4955893;28;20165;-72
2023/06/29 06:38:09;;;;;;;28.88;15.63;;;;;;;;;;4968209;28;20177;-72
2023/06/29 06:40:34;;;;;;;25.90;15.43;;;;;;;;;;4955426;28;20666;-71
2023/06/29 06:43:00;;;;;;;29.00;15.15;;;;;;;;;;4960920;28;20216;-71
2023/06/29 06:45:25;;;;;;;27.15;14.60;;;;;;;;;;4946581;28;20245;-71
2023/06/29 06:47:50;;;;;;;25.23;15.10;;;;;;;;;;4955045;28;20193;-72
2023/06/29 06:50:15;;;;;;;23.92;15.52;;;;;;;;;;4956214;28;20253;-72
2023/06/29 06:52:40;;;;;;;26.13;15.15;;;;;;;;;;4955227;28;20181;-72
2023/06/29 06:55:06;;;;;;;25.30;14.10;;;;;;;;;;4954033;28;20177;-72
2023/06/29 06:57:32;;;;;;;26.40;14.60;;;;;;;;;;4954949;28;20660;-72
2023/06/29 06:59:57;;;;;;;25.48;15.52;;;;;;;;;;4954353;28;20204;-72
2023/06/29 07:02:22;;;;;;;29.35;16.17;;;;;;;;;;4948918;28;20598;-72
2023/06/29 07:04:47;;;;;;;28.25;15.65;;;;;;;;;;4960572;28;20212;-72
2023/06/29 07:07:13;;;;;;;24.30;14.75;;;;;;;;;;4952724;28;20636;-72
2023/06/29 07:09:38;;;;;;;26.73;15.38;;;;;;;;;;4948324;28;20181;-72
2023/06/29 07:12:04;;;;;;;24.25;15.40;;;;;;;;;;4955166;28;20267;-72
2023/06/29 07:14:29;;;;;;;31.10;16.52;;;;;;;;;;4954549;28;20252;-73
2023/06/29 07:16:55;;;;;;;25.50;15.20;;;;;;;;;;4957955;28;20188;-71
2023/06/29 07:19:20;;;;;;;25.27;15.75;;;;;;;;;;4947387;28;20196;-73
2023/06/29 07:21:46;;;;;;;29.40;15.77;;;;;;;;;;4953124;28;20221;-71
2023/06/29 07:24:11;;;;;;;26.38;15.05;;;;;;;;;;4954256;28;20256;-72
2023/06/29 07:26:36;;;;;;;25.73;14.85;;;;;;;;;;4962352;28;20177;-72
2023/06/29 07:29:05;;;;;;;25.10;16.08;;;;;;;;;;4955302;28;20188;-71
2023/06/29 07:31:30;;;;;;;26.65;16.20;;;;;;;;;;4951450;28;20194;-73
2023/06/29 07:33:56;;;;;;;28.05;15.95;;;;;;;;;;4948209;28;20288;-72
2023/06/29 07:36:21;;;;;;;26.00;15.65;;;;;;;;;;4950910;28;20647;-73
2023/06/29 07:38:47;;;;;;;24.95;15.23;;;;;;;;;;4957807;28;20197;-73
2023/06/29 07:41:13;;;;;;;22.95;14.77;;;;;;;;;;4958255;28;20173;-73
2023/06/29 07:43:41;;;;;;;25.15;15.45;;;;;;;;;;4955780;28;20250;-73
2023/06/29 07:46:07;;;;;;;28.25;16.42;;;;;;;;;;4947686;28;20445;-73
2023/06/29 07:48:32;;;;;;;25.30;15.10;;;;;;;;;;4952076;28;20641;-73
2023/06/29 07:50:57;;;;;;;26.90;17.20;;;;;;;;;;4953141;28;20180;-73
2023/06/29 07:53:23;;;;;;;29.20;17.73;;;;;;;;;;4951099;29;20205;-73
2023/06/29 07:55:48;;;;;;;31.27;16.92;;;;;;;;;;4955216;28;20561;-73
2023/06/29 07:58:13;;;;;;;30.90;17.40;;;;;;;;;;4951566;28;20179;-73
2023/06/29 08:00:38;;;;;;;26.15;15.82;;;;;;;;;;4944590;28;20213;-73
2023/06/29 08:03:04;;;;;;;23.73;16.17;;;;;;;;;;4953424;28;20239;-73
2023/06/29 08:05:29;;;;;;;28.17;16.02;;;;;;;;;;4966480;28;20183;-73
2023/06/29 08:07:54;;;;;;;22.98;16.08;;;;;;;;;;4942421;28;20563;-75
2023/06/29 08:10:20;;;;;;;28.42;17.25;;;;;;;;;;4950024;28;20180;-74
2023/06/29 08:12:45;;;;;;;26.20;16.70;;;;;;;;;;4968945;28;20264;-73
2023/06/29 08:15:10;;;;;;;24.35;15.55;;;;;;;;;;4957175;28;20674;-73
2023/06/29 08:17:35;;;;;;;28.65;17.90;;;;;;;;;;4964872;28;20238;-73
2023/06/29 08:20:01;;;;;;;28.25;17.40;;;;;;;;;;4951220;28;20209;-73
2023/06/29 08:22:26;;;;;;;26.33;17.13;;;;;;;;;;4954641;28;20177;-73
2023/06/29 08:24:51;;;;;;;24.90;17.63;;;;;;;;;;4946972;28;20204;-75
2023/06/29 08:27:17;;;;;;;27.27;16.88;;;;;;;;;;4946605;28;20191;-73
2023/06/29 08:29:43;;;;;;;26.10;17.83;;;;;;;;;;4951031;28;20228;-73
2023/06/29 08:32:08;;;;;;;25.40;18.08;;;;;;;;;;4950052;28;20185;-72
2023/06/29 08:34:34;;;;;;;24.95;17.27;;;;;;;;;;4954027;28;20678;-74
2023/06/29 08:36:59;;;;;;;27.13;17.20;;;;;;;;;;4950893;28;20609;-73
2023/06/29 08:39:24;;;;;;;27.27;16.70;;;;;;;;;;4945161;28;20208;-72
2023/06/29 08:41:50;;;;;;;27.08;17.23;;;;;;;;;;4951800;28;20180;-73
2023/06/29 08:44:15;;;;;;;22.40;16.00;;;;;;;;;;4949818;28;20200;-73
2023/06/29 08:46:41;;;;;;;26.38;16.45;;;;;;;;;;4947769;28;20185;-73
2023/06/29 08:49:08;;;;;;;21.65;14.13;;;;;;;;;;4951788;28;20185;-73
2023/06/29 08:51:34;;;;;;;24.77;16.27;;;;;;;;;;4953679;29;20181;-75
2023/06/29 08:54:00;;;;;;;23.85;16.30;;;;;;;;;;4945491;28;20344;-74
2023/06/29 08:56:26;;;;;;;22.17;14.52;;;;;;;;;;4963077;28;20210;-73
2023/06/29 08:58:52;;;;;;;20.60;14.20;;;;;;;;;;4956229;28;20198;-73
2023/06/29 09:01:18;;;;;;;26.77;15.75;;;;;;;;;;4958458;28;20639;-73
2023/06/29 09:03:44;;;;;;;24.45;15.18;;;;;;;;;;4944544;28;20220;-73
2023/06/29 09:06:09;;;;;;;21.20;14.57;;;;;;;;;;4954500;28;20181;-74
2023/06/29 09:08:37;;;;;;;20.35;13.25;;;;;;;;;;4955641;28;20215;-74
2023/06/29 09:11:02;;;;;;;21.42;12.93;;;;;;;;;;4964460;28;20274;-73
2023/06/29 09:13:27;;;;;;;24.05;15.60;;;;;;;;;;4950994;28;20674;-73
2023/06/29 09:15:53;;;;;;;20.48;14.10;;;;;;;;;;4960597;28;20235;-73
2023/06/29 09:18:23;;;;;;;22.17;13.80;;;;;;;;;;4958191;28;20188;-73
2023/06/29 09:20:55;;;;;;;28.02;15.10;;;;;;;;;;4958082;28;20176;-74
2023/06/29 09:23:20;;;;;;;20.70;14.45;;;;;;;;;;4951535;28;20204;-73
2023/06/29 09:25:48;;;;;;;22.73;15.15;;;;;;;;;;4957191;28;20188;-73
2023/06/29 09:28:13;;;;;;;25.30;14.40;;;;;;;;;;4956253;28;20263;-73
2023/06/29 09:30:40;;;;;;;20.15;13.23;;;;;;;;;;4959709;28;20655;-74
2023/06/29 09:33:06;;;;;;;28.45;15.00;;;;;;;;;;4956885;28;20205;-73
2023/06/29 09:35:31;;;;;;;20.23;13.48;;;;;;;;;;4953399;29;20330;-73
2023/06/29 09:37:56;;;;;;;20.67;13.88;;;;;;;;;;4969500;28;20224;-73
2023/06/29 09:40:22;;;;;;;22.77;13.73;;;;;;;;;;4958093;28;20208;-73
2023/06/29 09:42:47;;;;;;;21.30;13.45;;;;;;;;;;4951580;28;20515;-74
2023/06/29 09:45:13;;;;;;;21.60;13.88;;;;;;;;;;4963807;28;20188;-73
2023/06/29 09:47:41;;;;;;;20.35;12.70;;;;;;;;;;4967670;28;20169;-74
2023/06/29 09:50:16;;;;;;;20.80;14.23;;;;;;;;;;4945069;28;20640;-73
2023/06/29 09:52:45;;;;;;;23.27;13.20;;;;;;;;;;4953106;28;20180;-73
2023/06/29 09:55:10;;;;;;;24.48;13.10;;;;;;;;;;4973350;28;20181;-73
2023/06/29 09:57:36;;;;;;;24.38;13.95;;;;;;;;;;4954562;28;20192;-73
2023/06/29 10:00:05;;;;;;;21.38;14.27;;;;;;;;;;4954618;28;20201;-74
2023/06/29 10:02:30;;;;;;;21.10;12.68;;;;;;;;;;4953963;28;20211;-74
2023/06/29 10:04:55;;;;;;;20.55;14.50;;;;;;;;;;4945903;28;20205;-73
2023/06/29 10:07:21;;;;;;;20.48;12.85;;;;;;;;;;4949022;28;20184;-74
2023/06/29 10:09:48;;;;;;;18.40;12.90;;;;;;;;;;4944907;28;20187;-74
2023/06/29 10:12:15;;;;;;;24.52;13.23;;;;;;;;;;4956278;28;20200;-74
2023/06/29 10:14:44;;;;;;;22.23;14.43;;;;;;;;;;4945464;28;20196;-73
2023/06/29 10:17:19;;;;;;;23.98;14.60;;;;;;;;;;4950277;28;20197;-75
2023/06/29 10:19:45;;;;;;;21.83;15.55;;;;;;;;;;4956745;29;20299;-74
2023/06/29 10:22:13;;;;;;;21.55;14.13;;;;;;;;;;4952204;28;20244;-75
2023/06/29 10:24:45;;;;;;;21.50;14.80;;;;;;;;;;4946027;29;20201;-74
2023/06/29 10:27:12;;;;;;;22.55;15.15;;;;;;;;;;4944393;28;20205;-73
2023/06/29 10:29:44;;;;;;;22.60;14.80;;;;;;;;;;4952756;28;20184;-73
2023/06/29 10:32:27;;;;;;;23.75;14.82;;;;;;;;;;4956726;28;20264;-74
2023/06/29 10:35:13;;;;;;;20.63;13.35;;;;;;;;;;4963498;28;20189;-74
2023/06/29 10:37:40;;;;;;;18.45;13.38;;;;;;;;;;4950471;28;20236;-74
2023/06/29 10:40:13;;;;;;;19.83;14.00;;;;;;;;;;4947603;28;20213;-76
2023/06/29 10:42:38;;;;;;;21.00;14.23;;;;;;;;;;4951382;28;20250;-75
2023/06/29 10:45:30;;;;;;;21.53;14.03;;;;;;;;;;4957031;28;20201;-73
2023/06/29 10:47:55;;;;;;;20.55;14.35;;;;;;;;;;4953481;28;20455;-76
2023/06/29 10:50:31;;;;;;;18.90;13.20;;;;;;;;;;4950968;28;20264;-74
2023/06/29 10:52:59;;;;;;;21.08;13.77;;;;;;;;;;4948059;28;20446;-75
2023/06/29 10:55:26;;;;;;;23.30;13.82;;;;;;;;;;4955640;28;20267;-74
2023/06/29 10:57:54;;;;;;;20.38;13.50;;;;;;;;;;4955905;28;20178;-74
2023/06/29 11:00:19;;;;;;;20.30;13.27;;;;;;;;;;4954235;28;20246;-73
2023/06/29 11:02:46;;;;;;;18.48;13.05;;;;;;;;;;4956379;28;20185;-73
2023/06/29 11:05:19;;;;;;;20.55;12.93;;;;;;;;;;4951661;28;20200;-73
2023/06/29 11:07:44;;;;;;;19.85;13.40;;;;;;;;;;4955728;28;20181;-73
2023/06/29 11:10:10;;;;;;;20.70;14.15;;;;;;;;;;4953402;29;20264;-73
2023/06/29 11:12:36;;;;;;;21.00;14.55;;;;;;;;;;4953500;28;20205;-73
2023/06/29 11:15:01;;;;;;;21.13;14.05;;;;;;;;;;4952689;28;20240;-73
2023/06/29 11:17:26;;;;;;;16.98;12.18;;;;;;;;;;4960598;28;20242;-74
2023/06/29 11:19:52;;;;;;;18.17;11.73;;;;;;;;;;4953196;28;20232;-73
2023/06/29 11:22:20;;;;;;;16.77;12.02;;;;;;;;;;4955377;28;20860;-73
2023/06/29 11:24:45;;;;;;;17.92;12.30;;;;;;;;;;4958305;28;20705;-74
2023/06/29 11:27:10;;;;;;;19.25;12.45;;;;;;;;;;4946048;28;20174;-73
2023/06/29 11:29:36;;;;;;;19.90;11.32;;;;;;;;;;4949401;28;20297;-73
2023/06/29 11:32:01;;;;;;;16.15;10.73;;;;;;;;;;4955063;28;20648;-73
2023/06/29 11:34:26;;;;;;;15.73;10.27;;;;;;;;;;4955905;28;20209;-73
2023/06/29 11:36:52;;;;;;;14.77;9.90;;;;;;;;;;4957296;28;20191;-73
2023/06/29 11:39:18;;;;;;;18.98;12.00;;;;;;;;;;4945390;28;20295;-73
2023/06/29 11:41:43;;;;;;;15.93;11.30;;;;;;;;;;4939399;28;20177;-73
2023/06/29 11:44:08;;;;;;;16.58;11.27;;;;;;;;;;4952445;28;20208;-73
2023/06/29 11:46:34;;;;;;;18.35;11.73;;;;;;;;;;4949106;28;20184;-73
2023/06/29 11:49:00;;;;;;;15.55;10.43;;;;;;;;;;4946182;28;20251;-72
2023/06/29 11:51:28;;;;;;;17.95;10.82;;;;;;;;;;4969755;28;20601;-73
2023/06/29 11:53:53;;;;;;;13.93;9.82;;;;;;;;;;4953532;28;20192;-73
2023/06/29 11:56:34;;;;;;;14.90;8.88;;;;;;;;;;4953412;28;20177;-73
2023/06/29 11:59:08;;;;;;;15.82;8.90;;;;;;;;;;4951435;28;20211;-73
2023/06/29 12:01:34;;;;;;;15.27;9.02;;;;;;;;;;4943835;28;20177;-73
2023/06/29 12:04:00;;;;;;;13.43;9.07;;;;;;;;;;4979916;23;20231;-66
2023/06/29 12:06:25;;;;;;;14.55;9.00;;;;;;;;;;4990270;28;20179;-67
2023/06/29 12:08:51;;;;;;;13.40;8.98;;;;;;;;;;4991388;28;20214;-68
2023/06/29 12:11:18;;;;;;;13.07;8.02;;;;;;;;;;4986287;28;20179;-67
2023/06/29 12:13:44;;;;;;;13.93;8.52;;;;;;;;;;4982500;28;20295;-67
2023/06/29 12:16:09;;;;;;;13.32;9.75;;;;;;;;;;4967197;28;20180;-68
2023/06/29 12:18:34;;;;;;;17.30;9.18;;;;;;;;;;4964649;28;20228;-67
2023/06/29 12:21:03;;;;;;;14.68;9.88;;;;;;;;;;4961470;28;20176;-68
2023/06/29 12:23:28;;;;;;;14.20;9.40;;;;;;;;;;4968845;28;20658;-70
2023/06/29 12:25:53;;;;;;;14.52;9.43;;;;;;;;;;4969638;28;20191;-68
2023/06/29 12:28:19;;;;;;;14.52;9.65;;;;;;;;;;4968932;28;20267;-69
2023/06/29 12:30:44;;;;;;;16.48;8.75;;;;;;;;;;4966913;28;20181;-68
2023/06/29 12:33:11;;;;;;;20.80;10.43;;;;;;;;;;4969336;28;20203;-68
2023/06/29 12:35:36;;;;;;;14.10;9.60;;;;;;;;;;4962842;28;20181;-68
2023/06/29 12:38:01;;;;;;;15.02;9.43;;;;;;;;;;4968686;28;20192;-68
2023/06/29 12:40:27;;;;;;;12.73;8.70;;;;;;;;;;4964700;28;20306;-68
2023/06/29 12:42:52;;;;;;;13.10;9.15;;;;;;;;;;4970225;28;20191;-69
2023/06/29 12:45:18;;;;;;;16.50;9.38;;;;;;;;;;4967660;28;20203;-68
2023/06/29 12:47:43;;;;;;;12.45;8.60;;;;;;;;;;4969266;28;20172;-69
2023/06/29 12:50:09;;;;;;;14.48;9.10;;;;;;;;;;4971388;28;20180;-68
2023/06/29 12:52:34;;;;;;;14.20;8.52;;;;;;;;;;4968445;28;20235;-67
2023/06/29 12:54:59;;;;;;;15.18;9.18;;;;;;;;;;4958983;28;20213;-68
2023/06/29 12:57:31;;;;;;;16.85;10.32;;;;;;;;;;4984641;28;20192;-68
2023/06/29 12:59:56;;;;;;;14.55;9.30;;;;;;;;;;4971070;28;20204;-68
2023/06/29 13:02:22;;;;;;;16.52;9.07;;;;;;;;;;4966937;28;20199;-67
2023/06/29 13:04:47;;;;;;;15.85;9.75;;;;;;;;;;4971189;28;20310;-67
2023/06/29 13:07:14;;;;;;;12.60;8.45;;;;;;;;;;4966007;28;20197;-68
2023/06/29 13:09:41;;;;;;;11.77;8.20;;;;;;;;;;4970638;28;20271;-68
2023/06/29 13:12:06;;;;;;;13.75;9.68;;;;;;;;;;4962941;28;20600;-68
2023/06/29 13:14:33;;;;;;;12.30;8.38;;;;;;;;;;4969782;28;20220;-68
2023/06/29 13:16:58;;;;;;;11.70;8.25;;;;;;;;;;4971679;28;20200;-68
2023/06/29 13:19:23;;;;;;;16.60;9.68;;;;;;;;;;4962013;28;20286;-68
2023/06/29 13:21:49;;;;;;;12.32;9.05;;;;;;;;;;4963036;28;20181;-67
2023/06/29 13:24:14;;;;;;;14.30;8.93;;;;;;;;;;4963364;28;20451;-67
2023/06/29 13:26:40;;;;;;;14.98;9.40;;;;;;;;;;4964814;28;20244;-67
2023/06/29 13:29:05;;;;;;;13.85;8.50;;;;;;;;;;4965793;28;20176;-67
2023/06/29 13:31:30;;;;;;;14.33;9.47;;;;;;;;;;4967555;28;20705;-68
2023/06/29 13:33:56;;;;;;;13.80;8.25;;;;;;;;;;4959516;28;20425;-68
2023/06/29 13:36:21;;;;;;;13.68;8.73;;;;;;;;;;4960791;28;20195;-68
2023/06/29 13:38:46;;;;;;;12.77;7.68;;;;;;;;;;4959667;28;20177;-68
2023/06/29 13:41:11;;;;;;;14.67;8.53;;;;;;;;;;4972644;28;20184;-68
2023/06/29 13:43:36;;;;;;;15.47;8.60;;;;;;;;;;4963925;28;20431;-67
2023/06/29 13:46:02;;;;;;;11.63;8.50;;;;;;;;;;4974056;28;20423;-68
2023/06/29 13:48:27;;;;;;;13.07;8.40;;;;;;;;;;4973277;28;20234;-69
2023/06/29 13:50:52;;;;;;;13.07;8.67;;;;;;;;;;4963201;28;20460;-67
2023/06/29 13:53:17;;;;;;;13.20;8.55;;;;;;;;;;4959828;28;20430;-68
2023/06/29 13:55:43;;;;;;;14.75;8.90;;;;;;;;;;4961757;28;20560;-70
2023/06/29 13:58:08;;;;;;;13.55;9.52;;;;;;;;;;4972238;28;20657;-67
2023/06/29 14:00:33;;;;;;;14.93;8.77;;;;;;;;;;4973403;28;20678;-68
2023/06/29 14:02:58;;;;;;;16.77;9.95;;;;;;;;;;4968051;28;20320;-69
2023/06/29 14:05:24;;;;;;;16.23;10.03;;;;;;;;;;4960832;28;20200;-68
2023/06/29 14:07:49;;;;;;;14.75;9.85;;;;;;;;;;4966627;28;20421;-67
2023/06/29 14:10:14;;;;;;;14.83;9.57;;;;;;;;;;4963942;28;20180;-69
2023/06/29 14:12:39;;;;;;;15.55;10.25;;;;;;;;;;4972793;28;20422;-68
2023/06/29 14:15:05;;;;;;;17.00;10.40;;;;;;;;;;4973518;28;20215;-68